Time;durP1;ratioP1;P1;durP2;ratioP2;P2;SDS_P1;SDS_P2;PMS_P1;PMS_P2;Temp;Humidity;BMP_temperature;BMP_pressure;BME280_temperature;BME280_humidity;BME280_pressure;Samples;Min_cycle;Max_cycle;Signal;HPM_P1;HPM_P2
2023/02/01 00:00:30;;;;;;;;;;;;;;;3.12;100.00;96166.25;10525578;28;2025;-72
2023/02/01 00:05:32;;;;;;;;;;;;;;;3.23;100.00;96165.53;10531380;28;2102;-72
2023/02/01 00:10:35;;;;;;;;;;;;;;;3.24;100.00;96159.22;10530003;28;2050;-71
2023/02/01 00:15:37;;;;;;;;;;;;;;;3.24;100.00;96161.88;10526402;28;1981;-73
2023/02/01 00:20:39;;;;;;;;;;;;;;;3.21;100.00;96159.63;10528865;28;2077;-73
2023/02/01 00:25:42;;;;;;;;;;;;;;;3.18;100.00;96168.06;10527654;28;2087;-74
2023/02/01 00:30:44;;;;;;;;;;;;;;;3.25;100.00;96160.84;10531156;28;2210;-72
2023/02/01 00:35:46;;;;;;;;;;;;;;;3.21;100.00;96154.31;10534310;28;2264;-72
2023/02/01 00:40:49;;;;;;;;;;;;;;;3.29;100.00;96158.53;10530212;28;2206;-72
2023/02/01 00:45:51;;;;;;;;;;;;;;;3.13;100.00;96153.78;10527263;28;2002;-73
2023/02/01 00:50:53;;;;;;;;;;;;;;;2.95;100.00;96160.66;10515552;28;2003;-73
2023/02/01 00:55:56;;;;;;;;;;;;;;;2.68;100.00;96144.13;10530662;28;2151;-71
2023/02/01 01:00:58;;;;;;;;;;;;;;;2.56;100.00;96148.47;10524604;28;2198;-73
2023/02/01 01:06:01;;;;;;;;;;;;;;;2.45;100.00;96143.84;10530122;28;2117;-72
2023/02/01 01:11:03;;;;;;;;;;;;;;;2.33;100.00;96162.28;10525005;28;2011;-73
2023/02/01 01:16:06;;;;;;;;;;;;;;;2.33;100.00;96156.16;10525575;28;1930;-73
2023/02/01 01:21:08;;;;;;;;;;;;;;;2.35;100.00;96146.13;10529558;28;2131;-72
2023/02/01 01:26:10;;;;;;;;;;;;;;;2.33;100.00;96146.34;10534069;28;2095;-72
2023/02/01 01:31:13;;;;;;;;;;;;;;;2.38;100.00;96146.53;10530303;28;2054;-74
2023/02/01 01:36:16;;;;;;;;;;;;;;;2.47;100.00;96143.63;10528803;28;2265;-74
2023/02/01 01:41:18;;;;;;;;;;;;;;;2.55;100.00;96130.13;10521908;28;2089;-72
2023/02/01 01:46:20;;;;;;;;;;;;;;;2.58;100.00;96129.69;10530300;28;2057;-74
2023/02/01 01:51:23;;;;;;;;;;;;;;;2.50;100.00;96116.69;10528896;28;2034;-73
2023/02/01 01:56:25;;;;;;;;;;;;;;;2.48;100.00;96103.59;10527432;28;2101;-73
2023/02/01 02:01:27;;;;;;;;;;;;;;;2.46;100.00;96103.00;10528787;28;2057;-74
2023/02/01 02:06:30;;;;;;;;;;;;;;;2.40;100.00;96102.03;10532604;28;2137;-73
2023/02/01 02:11:32;;;;;;;;;;;;;;;2.31;100.00;96107.81;10524860;28;2230;-72
2023/02/01 02:16:34;;;;;;;;;;;;;;;2.26;100.00;96094.38;10519921;28;2117;-72
2023/02/01 02:21:37;;;;;;;;;;;;;;;2.32;100.00;96109.44;10525049;28;2046;-73
2023/02/01 02:26:39;;;;;;;;;;;;;;;2.30;100.00;96116.81;10525492;28;2072;-72
2023/02/01 02:31:42;;;;;;;;;;;;;;;2.39;100.00;96126.94;10528351;28;2087;-73
2023/02/01 02:36:44;;;;;;;;;;;;;;;2.36;100.00;96127.38;10525142;28;2011;-74
2023/02/01 02:47:25;;;;;;;;;;;;;;;2.36;100.00;96115.97;10526132;28;1998;-73
2023/02/01 03:08:27;;;;;;;;;;;;;;;2.40;100.00;96091.41;10513578;28;2172;-73
2023/02/01 03:13:30;;;;;;;;;;;;;;;2.51;100.00;96081.16;10515887;28;2079;-72
2023/02/01 03:18:32;;;;;;;;;;;;;;;2.58;100.00;96077.41;10525487;28;2115;-72
2023/02/01 03:23:34;;;;;;;;;;;;;;;2.55;100.00;96075.22;10517596;28;2092;-73
2023/02/01 03:28:37;;;;;;;;;;;;;;;2.63;100.00;96074.13;10520282;28;2003;-73
2023/02/01 03:33:39;;;;;;;;;;;;;;;2.59;100.00;96068.41;10529959;28;2042;-73
2023/02/01 03:38:42;;;;;;;;;;;;;;;2.65;100.00;96072.88;10532660;28;2034;-72
2023/02/01 03:43:44;;;;;;;;;;;;;;;2.64;100.00;96065.94;10537455;28;2265;-73
2023/02/01 03:48:46;;;;;;;;;;;;;;;2.65;100.00;96048.16;10525433;28;2123;-73
2023/02/01 03:53:49;;;;;;;;;;;;;;;2.71;100.00;96056.06;10533116;28;2154;-74
2023/02/01 03:58:59;;;;;;;;;;;;;;;2.71;100.00;96045.47;10534204;28;2110;-73
2023/02/01 04:04:01;;;;;;;;;;;;;;;2.68;100.00;96053.06;10518318;28;2227;-74
2023/02/01 04:09:03;;;;;;;;;;;;;;;2.70;100.00;96056.28;10536877;28;2147;-72
2023/02/01 04:14:06;;;;;;;;;;;;;;;2.65;100.00;96046.31;10532348;28;2048;-73
2023/02/01 04:19:08;;;;;;;;;;;;;;;2.72;100.00;96052.38;10527173;28;2101;-72
2023/02/01 04:24:11;;;;;;;;;;;;;;;2.67;100.00;96060.22;10526682;28;2022;-73
2023/02/01 04:29:13;;;;;;;;;;;;;;;2.69;100.00;96047.53;10529551;28;2219;-72
2023/02/01 04:34:15;;;;;;;;;;;;;;;2.68;100.00;96031.81;10533772;28;2121;-72
2023/02/01 04:39:18;;;;;;;;;;;;;;;2.63;100.00;96034.31;10531194;28;2023;-73
2023/02/01 04:44:20;;;;;;;;;;;;;;;2.59;100.00;96041.88;10523425;28;2163;-73
2023/02/01 04:49:22;;;;;;;;;;;;;;;2.59;100.00;96047.19;10522851;28;2159;-72
2023/02/01 04:54:25;;;;;;;;;;;;;;;2.66;100.00;96050.59;10525997;28;2467;-72
2023/02/01 04:59:28;;;;;;;;;;;;;;;2.70;100.00;96041.19;10529689;28;2207;-74
2023/02/01 05:04:31;;;;;;;;;;;;;;;2.78;100.00;96047.25;10530442;28;2089;-72
2023/02/01 05:09:33;;;;;;;;;;;;;;;2.76;100.00;96051.97;10527934;28;2072;-71
2023/02/01 05:14:36;;;;;;;;;;;;;;;2.75;100.00;96050.34;10525147;28;2087;-73
2023/02/01 05:19:38;;;;;;;;;;;;;;;2.74;100.00;96051.38;10520694;28;2129;-72
2023/02/01 05:24:40;;;;;;;;;;;;;;;2.65;100.00;96050.81;10525545;28;2202;-72
2023/02/01 05:29:43;;;;;;;;;;;;;;;2.69;100.00;96060.78;10532201;28;2054;-72
2023/02/01 05:34:45;;;;;;;;;;;;;;;2.63;100.00;96069.63;10524157;28;2198;-72
2023/02/01 05:39:48;;;;;;;;;;;;;;;2.71;100.00;96061.38;10522430;28;2285;-72
2023/02/01 05:44:50;;;;;;;;;;;;;;;2.71;100.00;96044.66;10521994;28;2069;-75
2023/02/01 05:49:53;;;;;;;;;;;;;;;2.75;100.00;96050.34;10523967;28;2068;-72
2023/02/01 05:54:55;;;;;;;;;;;;;;;2.80;100.00;96053.13;10528977;28;2038;-74
2023/02/01 05:59:57;;;;;;;;;;;;;;;2.80;100.00;96048.66;10528381;28;2010;-75
2023/02/01 06:05:01;;;;;;;;;;;;;;;2.76;100.00;96036.84;10529357;28;2106;-75
2023/02/01 06:10:04;;;;;;;;;;;;;;;2.80;100.00;96023.94;10503216;28;2025;-76
2023/02/01 06:15:06;;;;;;;;;;;;;;;2.77;100.00;96037.66;10524282;28;2062;-74
2023/02/01 06:20:09;;;;;;;;;;;;;;;2.77;100.00;96011.91;10537515;28;2144;-74
2023/02/01 06:25:13;;;;;;;;;;;;;;;2.81;100.00;96022.94;10522337;28;2069;-73
2023/02/01 06:30:15;;;;;;;;;;;;;;;2.84;100.00;96027.78;10524190;28;2050;-76
2023/02/01 06:35:18;;;;;;;;;;;;;;;2.84;100.00;96030.44;10518639;28;2049;-73
2023/02/01 06:40:20;;;;;;;;;;;;;;;2.90;100.00;96034.88;10520867;28;2045;-75
2023/02/01 06:45:23;;;;;;;;;;;;;;;2.91;100.00;96039.97;10499985;28;2042;-75
2023/02/01 06:50:25;;;;;;;;;;;;;;;2.92;100.00;96041.59;10521186;28;2057;-75
2023/02/01 06:55:28;;;;;;;;;;;;;;;2.94;100.00;96028.91;10520866;28;2065;-74
2023/02/01 07:00:30;;;;;;;;;;;;;;;3.01;100.00;96015.56;10527812;28;2209;-73
2023/02/01 07:05:33;;;;;;;;;;;;;;;2.98;100.00;96005.38;10532345;28;2049;-74
2023/02/01 07:10:35;;;;;;;;;;;;;;;2.97;100.00;96027.66;10538666;28;2006;-74
2023/02/01 07:15:38;;;;;;;;;;;;;;;3.06;100.00;96010.41;10518982;28;2044;-74
2023/02/01 07:20:40;;;;;;;;;;;;;;;3.12;100.00;96025.47;10538546;28;2075;-74
2023/02/01 07:25:43;;;;;;;;;;;;;;;3.10;100.00;95995.66;10542339;28;2007;-74
2023/02/01 07:30:50;;;;;;;;;;;;;;;3.14;100.00;95983.56;10538217;28;2015;-72
2023/02/01 07:35:53;;;;;;;;;;;;;;;3.19;100.00;95997.00;10536729;28;2072;-73
2023/02/01 07:40:55;;;;;;;;;;;;;;;3.24;100.00;95993.66;10528064;28;2039;-76
2023/02/01 07:45:57;;;;;;;;;;;;;;;3.29;100.00;95993.00;10539331;28;2061;-73
2023/02/01 07:51:00;;;;;;;;;;;;;;;3.28;100.00;96002.00;10539351;28;2103;-74
2023/02/01 07:56:02;;;;;;;;;;;;;;;3.33;100.00;96010.13;10541542;28;1944;-76
2023/02/01 08:01:20;;;;;;;;;;;;;;;3.37;100.00;96027.22;10540153;28;2288;-76
2023/02/01 08:06:23;;;;;;;;;;;;;;;3.46;100.00;96033.88;10535639;28;2058;-75
2023/02/01 08:11:25;;;;;;;;;;;;;;;3.56;100.00;96047.44;10536692;28;2048;-76
2023/02/01 08:16:28;;;;;;;;;;;;;;;3.67;100.00;96051.22;10531340;28;2095;-75
2023/02/01 08:21:36;;;;;;;;;;;;;;;3.71;100.00;96050.56;10537091;28;1979;-76
2023/02/01 08:26:38;;;;;;;;;;;;;;;3.74;100.00;96044.78;10527983;28;2064;-73
2023/02/01 08:31:41;;;;;;;;;;;;;;;3.78;100.00;96063.78;10528890;28;2069;-75
2023/02/01 08:36:44;;;;;;;;;;;;;;;3.85;100.00;96048.53;10528981;28;2061;-73
2023/02/01 08:42:50;;;;;;;;;;;;;;;3.96;100.00;96062.94;10531282;28;2224;-79
2023/02/01 08:47:11;;;;;;;;;;;;;;;4.09;100.00;96054.78;10526662;28;1988;-77
2023/02/01 08:52:13;;;;;;;;;;;;;;;4.26;100.00;96052.25;10531744;28;2098;-79
2023/02/01 08:57:17;;;;;;;;;;;;;;;4.33;100.00;96047.69;10537804;28;2243;-77
2023/02/01 09:02:19;;;;;;;;;;;;;;;4.42;100.00;96038.31;10528994;28;2017;-76
2023/02/01 09:07:22;;;;;;;;;;;;;;;4.46;100.00;96046.69;10529167;28;2202;-75
2023/02/01 09:12:24;;;;;;;;;;;;;;;4.54;100.00;96049.81;10533879;28;2014;-76
2023/02/01 09:17:27;;;;;;;;;;;;;;;4.51;100.00;96044.13;10527039;28;2065;-75
2023/02/01 09:22:30;;;;;;;;;;;;;;;4.66;100.00;96031.19;10530910;28;2035;-75
2023/02/01 09:27:33;;;;;;;;;;;;;;;4.74;100.00;96038.84;10538637;28;1737;-78
2023/02/01 09:32:35;;;;;;;;;;;;;;;4.95;100.00;96044.63;10534506;28;1765;-78
2023/02/01 09:37:38;;;;;;;;;;;;;;;4.95;100.00;96042.78;10526126;28;2058;-78
2023/02/01 09:42:40;;;;;;;;;;;;;;;5.07;100.00;96042.78;10527982;28;2214;-77
2023/02/01 09:47:43;;;;;;;;;;;;;;;5.17;100.00;96050.22;10529575;28;2117;-74
2023/02/01 09:52:45;;;;;;;;;;;;;;;5.30;100.00;96064.09;10524713;28;2093;-77
2023/02/01 09:57:47;;;;;;;;;;;;;;;5.14;100.00;96059.47;10524122;28;2386;-79
2023/02/01 10:02:50;;;;;;;;;;;;;;;5.17;100.00;96058.22;10528586;28;2053;-75
2023/02/01 10:07:52;;;;;;;;;;;;;;;5.12;100.00;96066.88;10526025;28;2317;-73
2023/02/01 10:12:55;;;;;;;;;;;;;;;5.13;100.00;96068.50;10537458;28;2050;-74
2023/02/01 10:17:57;;;;;;;;;;;;;;;4.95;100.00;96071.28;10518655;28;2062;-74
2023/02/01 10:23:00;;;;;;;;;;;;;;;4.94;100.00;96067.81;10525567;28;2046;-73
2023/02/01 10:28:23;;;;;;;;;;;;;;;4.92;100.00;96072.56;10529326;28;2054;-73
2023/02/01 10:33:26;;;;;;;;;;;;;;;5.03;100.00;96078.94;10522949;28;2098;-72
2023/02/01 10:38:28;;;;;;;;;;;;;;;5.02;100.00;96078.09;10530960;28;1999;-71
2023/02/01 10:43:31;;;;;;;;;;;;;;;4.85;100.00;96078.00;10529181;28;2146;-74
2023/02/01 10:48:33;;;;;;;;;;;;;;;4.84;100.00;96087.03;10523551;28;2014;-72
2023/02/01 10:53:37;;;;;;;;;;;;;;;4.94;100.00;96082.97;10506361;28;2061;-74
2023/02/01 10:58:39;;;;;;;;;;;;;;;4.88;100.00;96074.84;10526820;28;1987;-75
2023/02/01 11:03:42;;;;;;;;;;;;;;;4.96;100.00;96088.88;10524595;28;2077;-73
2023/02/01 11:08:44;;;;;;;;;;;;;;;4.92;100.00;96093.06;10525343;28;2204;-76
2023/02/01 11:13:47;;;;;;;;;;;;;;;4.95;100.00;96077.41;10527388;28;2010;-76
2023/02/01 11:18:49;;;;;;;;;;;;;;;4.97;100.00;96095.84;10524794;28;2031;-73
2023/02/01 11:23:52;;;;;;;;;;;;;;;4.84;100.00;96099.53;10520763;28;2235;-73
2023/02/01 11:28:54;;;;;;;;;;;;;;;4.68;100.00;96093.00;10522425;28;2126;-73
2023/02/01 11:33:57;;;;;;;;;;;;;;;4.59;100.00;96073.91;10522073;28;2007;-72
2023/02/01 11:38:59;;;;;;;;;;;;;;;4.57;100.00;96099.91;10505775;28;2030;-74
2023/02/01 11:44:01;;;;;;;;;;;;;;;4.50;100.00;96087.75;10522251;28;2127;-73
2023/02/01 11:49:04;;;;;;;;;;;;;;;4.46;100.00;96073.28;10522561;28;2085;-73
2023/02/01 11:54:06;;;;;;;;;;;;;;;4.56;100.00;96074.34;10526942;28;2081;-72
2023/02/01 11:59:09;;;;;;;;;;;;;;;4.45;100.00;96072.47;10529118;28;2059;-72
2023/02/01 12:04:12;;;;;;;;;;;;;;;4.59;100.00;96065.09;10531479;28;2078;-74
2023/02/01 12:09:15;;;;;;;;;;;;;;;4.64;100.00;96054.56;10534106;28;2045;-71
2023/02/01 12:14:19;;;;;;;;;;;;;;;4.68;100.00;96055.72;10536824;28;2007;-72
2023/02/01 12:19:21;;;;;;;;;;;;;;;4.60;100.00;96058.72;10536762;28;2118;-73
2023/02/01 12:24:23;;;;;;;;;;;;;;;4.56;100.00;96060.22;10520882;28;2141;-73
2023/02/01 12:29:26;;;;;;;;;;;;;;;4.47;100.00;96053.63;10533934;28;2053;-69
2023/02/01 12:34:28;;;;;;;;;;;;;;;4.33;100.00;96055.66;10523006;28;2022;-72
2023/02/01 12:39:31;;;;;;;;;;;;;;;4.08;100.00;96047.84;10532398;28;2095;-74
2023/02/01 12:44:33;;;;;;;;;;;;;;;4.17;100.00;96062.44;10531848;28;2119;-76
2023/02/01 12:49:35;;;;;;;;;;;;;;;4.18;100.00;96044.63;10531143;28;2173;-76
2023/02/01 12:54:38;;;;;;;;;;;;;;;4.10;100.00;96015.69;10531292;28;1952;-72
2023/02/01 12:59:41;;;;;;;;;;;;;;;4.12;100.00;96022.38;10527842;28;2026;-77
2023/02/01 13:04:43;;;;;;;;;;;;;;;4.29;100.00;96014.56;10509733;28;2144;-74
2023/02/01 13:09:46;;;;;;;;;;;;;;;4.41;100.00;96001.28;10508477;28;2098;-75
2023/02/01 13:14:50;;;;;;;;;;;;;;;4.42;100.00;95997.59;10508208;28;2322;-74
2023/02/01 13:19:52;;;;;;;;;;;;;;;4.41;100.00;96022.59;10531082;28;2042;-74
2023/02/01 13:24:55;;;;;;;;;;;;;;;4.47;100.00;96011.84;10530406;28;2058;-72
2023/02/01 13:29:57;;;;;;;;;;;;;;;4.37;100.00;96018.75;10529609;28;2027;-71
2023/02/01 13:34:59;;;;;;;;;;;;;;;4.36;100.00;96009.97;10531263;28;2066;-71
2023/02/01 13:40:02;;;;;;;;;;;;;;;4.34;100.00;96006.72;10525883;28;2074;-73
2023/02/01 13:45:05;;;;;;;;;;;;;;;4.20;100.00;96000.78;10524682;28;2218;-71
2023/02/01 13:50:07;;;;;;;;;;;;;;;4.17;100.00;96019.84;10529029;28;2058;-71
2023/02/01 13:55:10;;;;;;;;;;;;;;;4.27;100.00;96022.78;10532953;28;2151;-72
2023/02/01 14:00:13;;;;;;;;;;;;;;;4.09;100.00;96019.38;10527487;28;2077;-73
2023/02/01 14:05:15;;;;;;;;;;;;;;;4.11;100.00;96022.63;10525885;28;2073;-73
2023/02/01 14:10:17;;;;;;;;;;;;;;;4.03;100.00;96031.72;10524562;28;2053;-74
2023/02/01 14:15:21;;;;;;;;;;;;;;;4.05;100.00;96024.31;10526148;28;2074;-73
2023/02/01 14:20:24;;;;;;;;;;;;;;;4.06;100.00;96015.31;10526358;28;2039;-73
2023/02/01 14:25:29;;;;;;;;;;;;;;;3.99;100.00;96009.28;10504365;28;2193;-73
2023/02/01 14:30:31;;;;;;;;;;;;;;;4.03;100.00;96023.75;10523991;28;1987;-75
2023/02/01 14:35:34;;;;;;;;;;;;;;;4.00;100.00;96029.50;10523157;28;2050;-72
2023/02/01 14:40:36;;;;;;;;;;;;;;;3.96;100.00;96015.88;10523357;28;2031;-73
2023/02/01 14:45:39;;;;;;;;;;;;;;;3.90;100.00;96022.09;10520744;28;2474;-75
2023/02/01 14:50:42;;;;;;;;;;;;;;;3.96;100.00;96020.38;10531031;28;2003;-75
2023/02/01 14:55:45;;;;;;;;;;;;;;;3.93;100.00;95996.88;10516168;28;2294;-74
2023/02/01 15:00:50;;;;;;;;;;;;;;;3.92;100.00;96019.19;10530024;28;2030;-74
2023/02/01 15:05:53;;;;;;;;;;;;;;;4.01;100.00;96017.84;10527316;28;2139;-74
2023/02/01 15:10:55;;;;;;;;;;;;;;;4.03;100.00;96026.41;10533389;28;2132;-74
2023/02/01 15:15:58;;;;;;;;;;;;;;;3.97;100.00;96022.81;10534669;28;2246;-75
2023/02/01 15:21:00;;;;;;;;;;;;;;;3.98;100.00;96018.28;10533453;28;1987;-77
2023/02/01 15:26:23;;;;;;;;;;;;;;;3.98;100.00;96042.22;10534512;28;2098;-76
2023/02/01 15:31:25;;;;;;;;;;;;;;;3.89;100.00;96030.28;10517289;28;2005;-76
2023/02/01 15:36:28;;;;;;;;;;;;;;;3.77;100.00;96038.22;10534516;28;2002;-78
2023/02/01 15:41:31;;;;;;;;;;;;;;;3.61;100.00;96054.75;10536370;28;2035;-79
2023/02/01 15:46:33;;;;;;;;;;;;;;;3.52;100.00;96035.66;10533665;28;2029;-77
2023/02/01 15:51:36;;;;;;;;;;;;;;;3.60;100.00;96040.66;10532252;28;1934;-75
2023/02/01 15:56:43;;;;;;;;;;;;;;;3.54;100.00;96041.56;10538845;28;2064;-76
2023/02/01 16:01:46;;;;;;;;;;;;;;;3.49;100.00;96049.38;10543171;28;2128;-80
2023/02/01 16:06:49;;;;;;;;;;;;;;;3.52;100.00;96055.06;10540879;27;2118;-74
2023/02/01 16:11:51;;;;;;;;;;;;;;;3.43;100.00;96052.91;10530201;28;2055;-77
2023/02/01 16:16:53;;;;;;;;;;;;;;;3.42;100.00;96067.25;10524581;28;1998;-74
2023/02/01 16:21:56;;;;;;;;;;;;;;;3.41;100.00;96073.59;10529854;28;1984;-77
2023/02/01 16:26:58;;;;;;;;;;;;;;;3.40;100.00;96077.28;10527906;28;2094;-77
2023/02/01 16:32:00;;;;;;;;;;;;;;;3.33;100.00;96081.88;10528803;28;1958;-74
2023/02/01 16:37:03;;;;;;;;;;;;;;;3.30;100.00;96096.38;10532018;28;1947;-77
2023/02/01 16:42:05;;;;;;;;;;;;;;;3.41;100.00;96082.38;10527041;28;2030;-74
2023/02/01 16:47:08;;;;;;;;;;;;;;;3.39;100.00;96071.16;10527849;28;2015;-76
2023/02/01 16:52:10;;;;;;;;;;;;;;;3.44;100.00;96049.25;10529925;28;2101;-75
2023/02/01 16:57:13;;;;;;;;;;;;;;;3.42;100.00;96061.94;10527478;28;2005;-75
2023/02/01 17:02:15;;;;;;;;;;;;;;;3.44;100.00;96062.53;10526715;28;1918;-75
2023/02/01 17:07:18;;;;;;;;;;;;;;;3.47;100.00;96065.56;10523197;28;2161;-74
2023/02/01 17:12:21;;;;;;;;;;;;;;;3.49;100.00;96055.50;10528993;28;1956;-74
2023/02/01 17:17:23;;;;;;;;;;;;;;;3.53;100.00;96054.03;10521320;28;1935;-76
2023/02/01 17:22:39;;;;;;;;;;;;;;;3.55;100.00;96058.31;10519307;28;2002;-74
2023/02/01 17:27:42;;;;;;;;;;;;;;;3.61;100.00;96047.59;10520925;28;1982;-73
2023/02/01 17:32:44;;;;;;;;;;;;;;;3.60;100.00;96038.00;10518358;28;2070;-74
2023/02/01 17:37:47;;;;;;;;;;;;;;;3.66;100.00;96055.72;10518351;28;1837;-74
2023/02/01 17:42:51;;;;;;;;;;;;;;;3.65;100.00;96051.44;10530823;28;1901;-75
2023/02/01 17:47:53;;;;;;;;;;;;;;;3.74;100.00;96055.41;10518018;28;1994;-72
2023/02/01 17:52:56;;;;;;;;;;;;;;;3.72;100.00;96033.56;10522597;28;1950;-72
2023/02/01 17:57:59;;;;;;;;;;;;;;;3.67;100.00;96044.03;10536774;28;2128;-73
2023/02/01 18:03:02;;;;;;;;;;;;;;;3.73;100.00;96043.16;10525330;28;1927;-72
2023/02/01 18:08:05;;;;;;;;;;;;;;;3.74;100.00;96046.63;10524614;28;2061;-77
2023/02/01 18:13:07;;;;;;;;;;;;;;;3.71;100.00;96050.56;10505716;28;2119;-74
2023/02/01 18:18:09;;;;;;;;;;;;;;;3.76;100.00;96056.03;10519004;28;1943;-71
2023/02/01 18:23:12;;;;;;;;;;;;;;;3.71;100.00;96045.25;10516321;28;2054;-74
2023/02/01 18:28:15;;;;;;;;;;;;;;;3.77;100.00;96054.16;10505901;28;1975;-73
2023/02/01 18:33:17;;;;;;;;;;;;;;;3.75;100.00;96043.75;10523566;28;2087;-72
2023/02/01 18:38:20;;;;;;;;;;;;;;;3.72;100.00;96068.13;10520203;28;2040;-74
2023/02/01 18:43:22;;;;;;;;;;;;;;;3.75;100.00;96057.06;10520653;28;2013;-74
2023/02/01 18:48:24;;;;;;;;;;;;;;;3.75;100.00;96025.16;10538487;28;1978;-72
2023/02/01 18:53:27;;;;;;;;;;;;;;;3.77;100.00;96046.19;10519642;28;2151;-72
2023/02/01 18:58:30;;;;;;;;;;;;;;;3.77;100.00;96031.06;10521020;28;1982;-73
2023/02/01 19:03:33;;;;;;;;;;;;;;;3.79;100.00;96031.63;10506572;28;2094;-72
2023/02/01 19:08:42;;;;;;;;;;;;;;;3.82;100.00;96040.19;10528166;28;2247;-72
2023/02/01 19:13:45;;;;;;;;;;;;;;;3.75;100.00;96019.84;10531867;28;2182;-72
2023/02/01 19:18:47;;;;;;;;;;;;;;;3.76;100.00;96021.47;10534278;28;2094;-73
2023/02/01 19:23:49;;;;;;;;;;;;;;;3.88;100.00;96012.69;10534826;28;2056;-73
2023/02/01 19:28:52;;;;;;;;;;;;;;;3.82;100.00;96009.09;10531480;28;2097;-73
2023/02/01 19:33:54;;;;;;;;;;;;;;;3.86;100.00;96012.13;10534004;28;2184;-75
2023/02/01 19:38:57;;;;;;;;;;;;;;;3.80;100.00;96014.63;10524517;28;2038;-75
2023/02/01 19:43:59;;;;;;;;;;;;;;;3.85;100.00;96015.81;10534936;28;2116;-73
2023/02/01 19:49:01;;;;;;;;;;;;;;;3.79;100.00;95994.41;10535737;28;1752;-74
2023/02/01 19:54:05;;;;;;;;;;;;;;;3.76;100.00;95976.25;10523229;28;2169;-74
2023/02/01 19:59:07;;;;;;;;;;;;;;;3.78;100.00;96008.72;10532250;28;1831;-73
2023/02/01 20:04:11;;;;;;;;;;;;;;;3.82;100.00;96018.91;10534031;28;1996;-73
2023/02/01 20:09:13;;;;;;;;;;;;;;;3.86;100.00;96044.03;10546020;28;2037;-74
2023/02/01 20:14:16;;;;;;;;;;;;;;;3.82;100.00;96038.38;10530577;28;2097;-73
2023/02/01 20:19:19;;;;;;;;;;;;;;;3.83;100.00;96047.16;10518070;28;1910;-72
2023/02/01 20:24:21;;;;;;;;;;;;;;;3.80;100.00;96043.88;10520406;28;2167;-73
2023/02/01 20:29:24;;;;;;;;;;;;;;;3.83;100.00;96036.50;10544651;28;1721;-74
2023/02/01 20:34:27;;;;;;;;;;;;;;;3.87;100.00;96050.97;10528119;28;2185;-74
2023/02/01 20:39:29;;;;;;;;;;;;;;;3.89;100.00;96052.38;10534232;28;1910;-74
2023/02/01 20:44:31;;;;;;;;;;;;;;;3.84;100.00;96054.09;10528694;28;1811;-74
2023/02/01 20:49:34;;;;;;;;;;;;;;;3.85;100.00;96037.91;10523427;28;1717;-74
2023/02/01 20:54:37;;;;;;;;;;;;;;;3.85;100.00;96066.34;10525854;28;2030;-74
2023/02/01 20:59:39;;;;;;;;;;;;;;;3.80;100.00;96059.03;10522314;28;2402;-78
2023/02/01 21:04:42;;;;;;;;;;;;;;;3.86;100.00;96047.50;10525973;28;1768;-76
2023/02/01 21:09:44;;;;;;;;;;;;;;;3.79;100.00;96047.59;10536951;28;2119;-75
2023/02/01 21:14:47;;;;;;;;;;;;;;;3.77;100.00;96031.06;10505023;28;2092;-75
2023/02/01 21:19:49;;;;;;;;;;;;;;;3.70;100.00;96019.69;10531623;28;1993;-75
2023/02/01 21:24:52;;;;;;;;;;;;;;;3.65;100.00;96034.69;10516730;28;1995;-74
2023/02/01 21:29:54;;;;;;;;;;;;;;;3.64;100.00;96033.88;10532960;28;2083;-72
2023/02/01 21:34:58;;;;;;;;;;;;;;;3.62;100.00;96024.47;10535976;28;2048;-74
2023/02/01 21:40:00;;;;;;;;;;;;;;;3.57;100.00;96013.72;10533706;28;2100;-74
2023/02/01 21:45:03;;;;;;;;;;;;;;;3.64;100.00;96027.75;10529795;28;2064;-73
2023/02/01 21:50:06;;;;;;;;;;;;;;;3.63;100.00;96016.31;10522536;28;2110;-73
2023/02/01 21:55:08;;;;;;;;;;;;;;;3.62;100.00;96019.16;10523764;28;2042;-77
2023/02/01 22:00:11;;;;;;;;;;;;;;;3.56;100.00;96020.88;10527024;28;1930;-75
2023/02/01 22:05:15;;;;;;;;;;;;;;;3.46;100.00;96033.88;10522457;28;2052;-72
2023/02/01 22:10:18;;;;;;;;;;;;;;;3.41;100.00;96039.06;10528422;28;2145;-72
2023/02/01 22:15:20;;;;;;;;;;;;;;;3.48;100.00;96034.47;10525406;28;2104;-73
2023/02/01 22:20:23;;;;;;;;;;;;;;;3.60;100.00;96048.63;10524642;28;2051;-74
2023/02/01 22:25:27;;;;;;;;;;;;;;;3.59;100.00;96017.78;10526479;28;2029;-72
2023/02/01 22:30:30;;;;;;;;;;;;;;;3.69;100.00;96041.16;10523968;28;2105;-72
2023/02/01 22:35:32;;;;;;;;;;;;;;;3.65;100.00;96040.00;10525905;28;2145;-73
2023/02/01 22:40:35;;;;;;;;;;;;;;;3.64;100.00;96019.78;10522890;28;1979;-71
2023/02/01 22:45:37;;;;;;;;;;;;;;;3.68;100.00;96036.88;10505952;28;2065;-72
2023/02/01 22:50:39;;;;;;;;;;;;;;;3.61;100.00;96026.34;10524176;28;2089;-73
2023/02/01 22:55:44;;;;;;;;;;;;;;;3.58;100.00;96040.09;10521712;28;2180;-72
2023/02/01 23:00:46;;;;;;;;;;;;;;;3.56;100.00;96031.50;10526591;28;1995;-71
2023/02/01 23:05:49;;;;;;;;;;;;;;;3.56;100.00;96020.88;10530300;28;1974;-73
2023/02/01 23:10:51;;;;;;;;;;;;;;;3.56;100.00;96014.75;10530699;28;2053;-74
2023/02/01 23:15:53;;;;;;;;;;;;;;;3.58;100.00;96004.72;10523729;28;2073;-71
2023/02/01 23:20:56;;;;;;;;;;;;;;;3.57;100.00;96014.53;10526218;28;2053;-71
2023/02/01 23:25:59;;;;;;;;;;;;;;;3.60;100.00;96029.22;10525801;28;1946;-73
2023/02/01 23:31:03;;;;;;;;;;;;;;;3.57;100.00;96022.50;10525438;28;2138;-72
2023/02/01 23:36:06;;;;;;;;;;;;;;;3.54;100.00;96025.59;10520971;28;2117;-73
2023/02/01 23:41:08;;;;;;;;;;;;;;;3.52;100.00;96030.34;10520914;28;2076;-73
2023/02/01 23:46:12;;;;;;;;;;;;;;;3.46;100.00;96020.59;10527646;28;2034;-72
2023/02/01 23:51:14;;;;;;;;;;;;;;;3.47;100.00;96012.41;10532679;28;2077;-72
2023/02/01 23:56:17;;;;;;;;;;;;;;;3.51;100.00;96028.72;10538776;28;2064;-73
